createdAt,value
2023-01-21T00:01:04.654Z,0.74
2023-01-21T00:03:31.375Z,0.73
2023-01-21T00:06:00.659Z,0.73
2023-01-21T00:08:27.390Z,0.70
2023-01-21T00:10:54.366Z,0.71
2023-01-21T00:13:20.964Z,0.67
2023-01-21T00:15:47.453Z,0.70
2023-01-21T00:18:15.090Z,0.74
2023-01-21T00:20:41.514Z,0.63
2023-01-21T00:23:07.972Z,0.60
2023-01-21T00:25:34.413Z,0.70
2023-01-21T00:28:00.872Z,0.66
2023-01-21T00:30:27.232Z,0.70
2023-01-21T00:32:53.662Z,0.79
2023-01-21T00:35:20.059Z,0.90
2023-01-21T00:37:46.600Z,0.85
2023-01-21T00:40:13.646Z,0.95
2023-01-21T00:42:40.134Z,1.00
2023-01-21T00:45:07.313Z,1.20
2023-01-21T00:47:33.756Z,1.21
2023-01-21T00:50:00.158Z,1.32
2023-01-21T00:52:26.591Z,1.38
2023-01-21T00:54:52.992Z,1.47
2023-01-21T00:57:19.444Z,1.50
2023-01-21T00:59:45.950Z,1.58
2023-01-21T01:02:12.372Z,1.65
2023-01-21T01:04:38.913Z,1.63
2023-01-21T01:07:05.479Z,1.65
2023-01-21T01:09:31.913Z,1.59
2023-01-21T01:11:58.480Z,1.61
2023-01-21T01:14:25.085Z,1.62
2023-01-21T01:16:51.572Z,1.72
2023-01-21T01:19:18.214Z,1.77
2023-01-21T01:21:44.729Z,1.90
2023-01-21T01:24:11.162Z,1.83
2023-01-21T01:26:37.656Z,1.85
2023-01-21T01:29:05.106Z,2.01
2023-01-21T01:31:31.605Z,2.09
2023-01-21T01:33:58.115Z,2.10
2023-01-21T01:36:24.593Z,2.21
2023-01-21T01:38:52.134Z,2.27
2023-01-21T01:41:27.511Z,2.37
2023-01-21T01:44:06.674Z,2.43
2023-01-21T01:46:35.580Z,2.47
2023-01-21T01:49:12.857Z,2.54
2023-01-21T01:51:47.664Z,2.57
2023-01-21T01:54:19.385Z,2.46
2023-01-21T01:56:47.721Z,2.55
2023-01-21T01:59:15.094Z,2.57
2023-01-21T02:01:41.767Z,2.61
2023-01-21T02:04:10.458Z,2.55
2023-01-21T02:06:37.674Z,2.66
2023-01-21T02:09:04.197Z,2.70
2023-01-21T02:11:30.778Z,2.67
2023-01-21T02:13:58.923Z,2.47
2023-01-21T02:16:53.381Z,2.51
2023-01-21T02:19:38.673Z,2.59
2023-01-21T02:22:26.334Z,2.57
2023-01-21T02:25:24.479Z,2.60
2023-01-21T02:28:13.359Z,2.60
2023-01-21T02:31:03.754Z,2.62
2023-01-21T02:33:42.513Z,2.68
2023-01-21T02:36:17.737Z,2.58
2023-01-21T02:39:27.964Z,2.62
2023-01-21T02:42:03.236Z,2.59
2023-01-21T02:44:46.974Z,2.64
2023-01-21T02:47:26.985Z,2.68
2023-01-21T02:50:01.442Z,2.61
2023-01-21T02:52:28.638Z,2.52
2023-01-21T02:54:59.880Z,2.53
2023-01-21T02:57:36.021Z,2.58
2023-01-21T03:00:06.858Z,2.58
2023-01-21T03:02:36.145Z,2.56
2023-01-21T03:05:21.432Z,2.64
2023-01-21T03:08:14.077Z,2.68
2023-01-21T03:10:43.396Z,2.75
2023-01-21T03:13:41.412Z,2.77
2023-01-21T03:16:28.166Z,2.72
2023-01-21T03:18:55.713Z,2.77
2023-01-21T03:21:25.773Z,2.72
2023-01-21T03:23:53.571Z,2.72
2023-01-21T03:26:32.663Z,2.74
2023-01-21T03:29:03.483Z,2.46
2023-01-21T03:31:32.667Z,2.60
2023-01-21T03:34:02.373Z,2.38
2023-01-21T03:36:41.558Z,2.39
2023-01-21T03:39:17.348Z,2.40
2023-01-21T03:41:43.814Z,2.40
2023-01-21T03:44:10.697Z,2.37
2023-01-21T03:46:46.168Z,2.33
2023-01-21T03:49:45.689Z,2.31
2023-01-21T03:52:13.739Z,2.28
2023-01-21T03:54:40.778Z,2.18
2023-01-21T03:57:07.194Z,2.00
2023-01-21T03:59:33.575Z,1.82
2023-01-21T04:02:00.045Z,1.72
2023-01-21T04:04:26.503Z,1.60
2023-01-21T04:06:52.879Z,1.58
2023-01-21T04:09:19.397Z,1.41
2023-01-21T04:11:45.781Z,1.45
2023-01-21T04:14:12.266Z,1.45
2023-01-21T04:16:38.713Z,1.46
2023-01-21T04:19:05.310Z,1.52
2023-01-21T04:21:31.772Z,1.57
2023-01-21T04:23:58.197Z,1.63
2023-01-21T04:26:24.728Z,1.64
2023-01-21T04:28:51.195Z,1.74
2023-01-21T04:31:17.684Z,1.76
2023-01-21T04:33:44.858Z,1.79
2023-01-21T04:36:11.305Z,1.75
2023-01-21T04:38:37.907Z,1.66
2023-01-21T04:41:04.339Z,1.63
2023-01-21T04:43:30.793Z,1.65
2023-01-21T04:45:57.196Z,1.62
2023-01-21T04:48:23.645Z,1.48
2023-01-21T04:50:50.084Z,1.55
2023-01-21T04:53:16.553Z,1.65
2023-01-21T04:55:42.980Z,1.51
2023-01-21T04:58:09.443Z,1.41
2023-01-21T05:00:35.942Z,1.23
2023-01-21T05:03:02.483Z,1.23
2023-01-21T05:05:28.894Z,1.32
2023-01-21T05:07:55.338Z,1.19
2023-01-21T05:10:21.888Z,1.26
2023-01-21T05:12:48.615Z,1.38
2023-01-21T05:15:15.465Z,1.39
2023-01-21T05:17:42.035Z,1.38
2023-01-21T05:20:09.257Z,1.44
2023-01-21T05:22:35.662Z,1.53
2023-01-21T05:25:02.098Z,1.76
2023-01-21T05:27:28.670Z,2.06
2023-01-21T05:29:57.125Z,2.17
2023-01-21T05:32:23.570Z,2.27
2023-01-21T05:34:50.044Z,2.31
2023-01-21T05:37:16.480Z,2.25
2023-01-21T05:39:43.715Z,2.32
2023-01-21T05:42:10.169Z,2.31
2023-01-21T05:44:36.571Z,2.33
2023-01-21T05:47:03.170Z,2.41
2023-01-21T05:49:29.604Z,2.51
2023-01-21T05:51:56.035Z,2.41
2023-01-21T05:54:22.524Z,2.43
2023-01-21T05:56:48.914Z,2.64
2023-01-21T05:59:15.349Z,2.60
2023-01-21T06:01:42.553Z,2.65
2023-01-21T06:04:09.040Z,2.59
2023-01-21T06:06:35.471Z,2.59
2023-01-21T06:09:02.032Z,2.53
2023-01-21T06:11:28.412Z,2.50
2023-01-21T06:13:55.098Z,2.74
2023-01-21T06:16:21.515Z,2.57
2023-01-21T06:18:47.915Z,2.47
2023-01-21T06:21:14.339Z,2.44
2023-01-21T06:23:40.959Z,2.40
2023-01-21T06:26:07.340Z,2.50
2023-01-21T06:28:34.477Z,2.51
2023-01-21T06:31:00.967Z,2.55
2023-01-21T06:33:27.464Z,2.53
2023-01-21T06:35:54.039Z,2.53
2023-01-21T06:38:20.500Z,2.53
2023-01-21T06:40:46.926Z,2.60
2023-01-21T06:43:13.424Z,2.64
2023-01-21T06:45:39.846Z,2.66
2023-01-21T06:48:06.416Z,2.65
2023-01-21T06:50:32.865Z,2.70
2023-01-21T06:52:59.293Z,2.66
2023-01-21T06:55:25.758Z,2.66
2023-01-21T06:57:52.330Z,2.68
2023-01-21T07:00:19.416Z,2.71
2023-01-21T07:02:46.170Z,2.73
2023-01-21T07:05:15.001Z,2.77
2023-01-21T07:07:41.785Z,2.78
2023-01-21T07:10:09.140Z,2.79
2023-01-21T07:12:35.615Z,2.78
2023-01-21T07:15:02.043Z,2.80
2023-01-21T07:17:28.453Z,2.83
2023-01-21T07:19:55.017Z,2.84
2023-01-21T07:22:21.413Z,2.81
2023-01-21T07:24:48.091Z,2.84
2023-01-21T07:27:14.635Z,2.80
2023-01-21T07:29:41.071Z,2.76
2023-01-21T07:32:07.465Z,2.70
2023-01-21T07:34:33.970Z,2.71
2023-01-21T07:37:00.372Z,2.77
2023-01-21T07:39:26.921Z,2.84
2023-01-21T07:41:53.565Z,2.89
2023-01-21T07:44:19.971Z,2.90
2023-01-21T07:46:46.388Z,3.01
2023-01-21T07:49:17.168Z,3.01
2023-01-21T07:51:47.594Z,3.05
2023-01-21T07:54:14.721Z,3.04
2023-01-21T07:56:42.298Z,3.02
2023-01-21T07:59:10.139Z,2.98
2023-01-21T08:01:37.220Z,2.96
2023-01-21T08:04:03.775Z,2.87
2023-01-21T08:06:30.530Z,2.91
2023-01-21T08:08:56.966Z,2.85
2023-01-21T08:11:23.372Z,2.77
2023-01-21T08:13:50.576Z,2.78
2023-01-21T08:16:17.168Z,2.68
2023-01-21T08:18:44.391Z,2.67
2023-01-21T08:21:10.807Z,2.64
2023-01-21T08:23:37.462Z,2.68
2023-01-21T08:26:05.632Z,2.69
2023-01-21T08:28:32.751Z,2.62
2023-01-21T08:31:07.194Z,2.54
2023-01-21T08:33:33.967Z,2.22
2023-01-21T08:36:06.245Z,2.50
2023-01-21T08:38:34.490Z,2.52
2023-01-21T08:41:01.006Z,2.44
2023-01-21T08:43:27.554Z,2.54
2023-01-21T08:45:58.650Z,2.57
2023-01-21T08:48:25.237Z,2.27
2023-01-21T08:50:51.694Z,2.32
2023-01-21T08:53:18.246Z,2.41
2023-01-21T08:55:44.900Z,2.41
2023-01-21T08:58:11.997Z,2.50
2023-01-21T09:00:39.057Z,2.46
2023-01-21T09:03:05.653Z,2.43
2023-01-21T09:05:32.069Z,2.34
2023-01-21T09:07:58.574Z,2.51
2023-01-21T09:10:43.991Z,2.55
2023-01-21T09:13:10.609Z,2.59
2023-01-21T09:15:38.915Z,2.62
2023-01-21T09:18:05.419Z,2.67
2023-01-21T09:20:31.860Z,2.67
2023-01-21T09:22:58.916Z,2.71
2023-01-21T09:25:25.687Z,2.73
2023-01-21T09:27:52.342Z,2.61
2023-01-21T09:30:19.073Z,2.66
2023-01-21T09:32:45.440Z,2.54
2023-01-21T09:35:11.850Z,2.20
2023-01-21T09:37:38.481Z,2.19
2023-01-21T09:40:05.367Z,2.28
2023-01-21T09:42:32.620Z,2.31
2023-01-21T09:45:00.152Z,2.40
2023-01-21T09:47:29.605Z,2.37
2023-01-21T09:50:01.844Z,2.32
2023-01-21T09:52:35.839Z,2.24
2023-01-21T09:55:03.104Z,2.34
2023-01-21T09:57:45.090Z,2.42
2023-01-21T10:00:35.191Z,2.73
2023-01-21T10:03:11.039Z,2.87
2023-01-21T10:05:52.682Z,2.87
2023-01-21T10:08:43.625Z,3.14
2023-01-21T10:11:46.089Z,3.08
2023-01-21T10:14:41.158Z,3.01
2023-01-21T10:17:25.705Z,3.06
2023-01-21T10:20:12.249Z,2.94
2023-01-21T10:22:42.861Z,2.85
2023-01-21T10:25:20.182Z,2.34
2023-01-21T10:27:46.668Z,2.44
2023-01-21T10:30:26.241Z,2.76
2023-01-21T10:32:54.788Z,3.01
2023-01-21T10:35:31.877Z,3.13
2023-01-21T10:38:09.778Z,3.21
2023-01-21T10:40:45.362Z,2.91
2023-01-21T10:43:27.426Z,3.13
2023-01-21T10:46:22.708Z,3.28
2023-01-21T10:49:02.180Z,3.25
2023-01-21T10:51:38.425Z,3.03
2023-01-21T10:54:26.076Z,3.07
2023-01-21T10:57:06.827Z,2.99
2023-01-21T10:59:35.926Z,2.94
2023-01-21T11:02:08.573Z,2.76
2023-01-21T11:04:36.743Z,2.76
2023-01-21T11:07:05.091Z,2.88
2023-01-21T11:09:33.776Z,2.84
2023-01-21T11:12:00.945Z,2.83
2023-01-21T11:14:27.916Z,2.54
2023-01-21T11:16:54.720Z,2.69
2023-01-21T11:19:26.644Z,2.89
2023-01-21T11:22:19.759Z,2.89
2023-01-21T11:24:48.454Z,2.98
2023-01-21T11:27:23.039Z,2.93
2023-01-21T11:29:50.310Z,2.91
2023-01-21T11:32:26.840Z,3.07
2023-01-21T11:35:01.433Z,3.19
2023-01-21T11:37:29.382Z,3.03
2023-01-21T11:40:00.324Z,3.07
2023-01-21T11:42:27.107Z,2.98
2023-01-21T11:44:56.542Z,3.07
2023-01-21T11:47:49.696Z,2.99
2023-01-21T11:50:26.395Z,2.86
2023-01-21T11:53:14.270Z,2.74
2023-01-21T11:55:50.582Z,2.71
2023-01-21T11:58:20.070Z,2.90
2023-01-21T12:00:48.426Z,2.83
2023-01-21T12:03:20.658Z,2.79
2023-01-21T12:05:52.129Z,2.70
2023-01-21T12:08:37.829Z,2.70
2023-01-21T12:11:06.972Z,2.68
2023-01-21T12:14:07.937Z,2.74
2023-01-21T12:16:36.346Z,2.71
2023-01-21T12:19:07.562Z,2.90
2023-01-21T12:22:03.393Z,2.84
2023-01-21T12:24:35.802Z,2.58
2023-01-21T12:27:28.038Z,2.44
2023-01-21T12:30:03.479Z,2.75
2023-01-21T12:32:34.677Z,2.61
2023-01-21T12:35:26.977Z,2.82
2023-01-21T12:38:05.276Z,2.66
2023-01-21T12:40:34.559Z,2.76
2023-01-21T12:43:07.333Z,2.78
2023-01-21T12:45:38.211Z,2.67
2023-01-21T12:48:28.910Z,3.03
2023-01-21T12:51:05.329Z,3.17
2023-01-21T12:53:51.422Z,3.24
2023-01-21T12:56:35.333Z,3.21
2023-01-21T12:59:14.396Z,3.11
2023-01-21T13:02:06.247Z,3.02
2023-01-21T13:04:54.007Z,3.01
2023-01-21T13:07:45.326Z,3.14
2023-01-21T13:10:17.332Z,3.26
2023-01-21T13:12:47.463Z,3.35
2023-01-21T13:15:18.253Z,3.34
2023-01-21T13:17:57.503Z,3.27
2023-01-21T13:20:24.337Z,3.22
2023-01-21T13:23:14.967Z,3.02
2023-01-21T13:25:46.518Z,2.99
2023-01-21T13:28:34.760Z,3.09
2023-01-21T13:31:38.721Z,3.08
2023-01-21T13:34:15.882Z,2.95
2023-01-21T13:36:57.898Z,3.12
2023-01-21T13:39:34.154Z,3.39
2023-01-21T13:42:29.874Z,3.29
2023-01-21T13:45:05.366Z,3.33
2023-01-21T13:48:12.507Z,3.40
2023-01-21T13:51:01.017Z,3.14
2023-01-21T13:53:50.259Z,3.32
2023-01-21T13:56:35.829Z,3.54
2023-01-21T13:59:09.362Z,3.06
2023-01-21T14:02:00.713Z,3.41
2023-01-21T14:04:36.770Z,3.41
2023-01-21T14:07:09.234Z,3.39
2023-01-21T14:09:42.864Z,3.41
2023-01-21T14:12:20.149Z,3.22
2023-01-21T14:15:01.742Z,3.34
2023-01-21T14:17:41.250Z,3.44
2023-01-21T14:20:26.891Z,3.43
2023-01-21T14:22:56.405Z,3.48
2023-01-21T14:25:40.236Z,3.38
2023-01-21T14:28:12.182Z,3.30
2023-01-21T14:30:47.286Z,3.26
2023-01-21T14:33:18.241Z,3.12
2023-01-21T14:36:06.530Z,3.10
2023-01-21T14:38:48.143Z,3.11
2023-01-21T14:41:14.616Z,2.98
2023-01-21T14:43:41.093Z,2.99
2023-01-21T14:46:28.881Z,2.98
2023-01-21T14:49:07.666Z,2.89
2023-01-21T14:51:41.575Z,2.96
2023-01-21T14:54:14.132Z,2.85
2023-01-21T14:56:40.611Z,2.83
2023-01-21T14:59:23.246Z,2.67
2023-01-21T15:02:01.518Z,2.72
2023-01-21T15:04:30.050Z,2.88
2023-01-21T15:06:59.072Z,2.85
2023-01-21T15:09:34.889Z,2.83
2023-01-21T15:12:33.845Z,2.84
2023-01-21T15:17:53.394Z,2.90
2023-01-21T15:20:51.960Z,2.92
2023-01-21T15:23:29.418Z,2.93
2023-01-21T15:26:04.002Z,3.08
2023-01-21T15:28:30.927Z,2.94
2023-01-21T15:31:03.469Z,2.91
2023-01-21T15:33:30.548Z,2.84
2023-01-21T15:35:58.280Z,2.81
2023-01-21T15:38:24.935Z,2.74
2023-01-21T15:40:53.344Z,2.68
2023-01-21T15:43:43.602Z,2.79
2023-01-21T15:46:19.617Z,2.66
2023-01-21T15:49:25.111Z,2.64
2023-01-21T15:52:12.422Z,2.64
2023-01-21T15:54:53.613Z,2.63
2023-01-21T15:58:00.033Z,2.70
2023-01-21T16:00:32.894Z,2.68
2023-01-21T16:03:04.965Z,2.64
2023-01-21T16:05:41.165Z,2.50
2023-01-21T16:08:17.829Z,2.57
2023-01-21T16:11:02.882Z,2.58
2023-01-21T16:13:42.910Z,2.46
2023-01-21T16:16:33.759Z,2.44
2023-01-21T16:19:06.807Z,2.45
2023-01-21T16:21:35.229Z,2.46
2023-01-21T16:24:06.026Z,2.51
2023-01-21T16:27:07.982Z,2.62
2023-01-21T16:29:38.129Z,2.56
2023-01-21T16:32:04.722Z,2.65
2023-01-21T16:34:31.205Z,2.59
2023-01-21T16:36:58.256Z,2.69
2023-01-21T16:39:24.745Z,2.61
2023-01-21T16:42:00.986Z,2.52
2023-01-21T16:44:27.818Z,2.66
2023-01-21T16:46:54.501Z,2.74
2023-01-21T16:49:20.967Z,2.71
2023-01-21T16:51:54.816Z,2.75
2023-01-21T16:54:24.707Z,2.76
2023-01-21T16:56:59.550Z,2.59
2023-01-21T16:59:28.824Z,2.66
2023-01-21T17:01:56.230Z,2.53
2023-01-21T17:04:22.799Z,2.50
2023-01-21T17:06:59.308Z,2.46
2023-01-21T17:09:35.776Z,2.53
2023-01-21T17:12:08.457Z,2.48
2023-01-21T17:14:35.444Z,2.39
2023-01-21T17:17:05.504Z,2.38
2023-01-21T17:19:35.696Z,2.29
2023-01-21T17:22:12.540Z,2.32
2023-01-21T17:24:44.064Z,2.35
2023-01-21T17:27:14.375Z,2.33
2023-01-21T17:29:43.072Z,2.25
2023-01-21T17:32:22.840Z,2.32
2023-01-21T17:35:07.355Z,2.30
2023-01-21T17:37:52.645Z,2.26
2023-01-21T17:40:29.756Z,2.27
2023-01-21T17:42:57.012Z,2.27
2023-01-21T17:45:32.623Z,2.22
2023-01-21T17:48:09.433Z,2.18
2023-01-21T17:50:36.826Z,2.18
2023-01-21T17:53:05.161Z,2.18
2023-01-21T17:55:36.014Z,2.30
2023-01-21T17:58:05.615Z,2.23
2023-01-21T18:00:36.081Z,2.34
2023-01-21T18:03:03.902Z,2.20
2023-01-21T18:05:30.563Z,2.29
2023-01-21T18:07:57.064Z,2.23
2023-01-21T18:10:26.320Z,2.22
2023-01-21T18:12:54.487Z,2.17
2023-01-21T18:15:21.241Z,2.16
2023-01-21T18:17:51.469Z,2.14
2023-01-21T18:20:20.411Z,2.19
2023-01-21T18:22:48.332Z,2.28
2023-01-21T18:25:16.018Z,2.32
2023-01-21T18:27:46.794Z,2.33
2023-01-21T18:30:19.530Z,2.30
2023-01-21T18:32:47.019Z,2.42
2023-01-21T18:35:19.389Z,2.41
2023-01-21T18:37:46.270Z,2.46
2023-01-21T18:40:17.604Z,2.50
2023-01-21T18:42:52.283Z,2.60
2023-01-21T18:45:21.213Z,2.50
2023-01-21T18:47:49.127Z,2.45
2023-01-21T18:50:19.273Z,2.46
2023-01-21T18:52:45.808Z,2.50
2023-01-21T18:55:13.535Z,2.49
2023-01-21T18:57:42.033Z,2.55
2023-01-21T19:00:20.403Z,2.42
2023-01-21T19:02:47.386Z,2.56
2023-01-21T19:05:14.077Z,2.43
2023-01-21T19:07:41.252Z,2.46
2023-01-21T19:10:12.823Z,2.54
2023-01-21T19:12:40.133Z,2.41
2023-01-21T19:15:08.847Z,2.34
2023-01-21T19:17:35.436Z,2.54
2023-01-21T19:20:02.097Z,2.45
2023-01-21T19:22:28.916Z,2.55
2023-01-21T19:24:55.522Z,2.50
2023-01-21T19:27:28.796Z,2.58
2023-01-21T19:29:55.554Z,2.68
2023-01-21T19:32:22.151Z,2.59
2023-01-21T19:34:48.607Z,2.53
2023-01-21T19:37:21.502Z,2.55
2023-01-21T19:39:47.967Z,2.61
2023-01-21T19:42:16.186Z,2.53
2023-01-21T19:44:43.025Z,2.55
2023-01-21T19:47:18.162Z,2.47
2023-01-21T19:49:45.504Z,2.50
2023-01-21T19:52:14.092Z,2.44
2023-01-21T19:54:40.629Z,2.44
2023-01-21T19:57:14.764Z,2.47
2023-01-21T19:59:42.434Z,2.52
2023-01-21T20:02:12.316Z,2.48
2023-01-21T20:04:39.360Z,2.52
2023-01-21T20:07:05.960Z,2.59
2023-01-21T20:09:32.826Z,2.53
2023-01-21T20:12:00.251Z,2.40
2023-01-21T20:14:28.682Z,2.54
2023-01-21T20:16:56.317Z,2.65
2023-01-21T20:19:22.977Z,2.64
2023-01-21T20:22:01.103Z,2.42
2023-01-21T20:24:30.557Z,2.54
2023-01-21T20:26:57.948Z,2.62
2023-01-21T20:29:27.186Z,2.53
2023-01-21T20:31:54.590Z,2.45
2023-01-21T20:34:21.138Z,2.55
2023-01-21T20:36:49.647Z,2.55
2023-01-21T20:39:16.231Z,2.51
2023-01-21T20:41:43.567Z,2.47
2023-01-21T20:44:10.484Z,2.53
2023-01-21T20:46:37.088Z,2.54
2023-01-21T20:49:03.564Z,2.51
2023-01-21T20:51:30.247Z,2.54
2023-01-21T20:53:56.762Z,2.51
2023-01-21T20:56:31.188Z,2.53
2023-01-21T20:58:58.230Z,2.59
2023-01-21T21:01:25.957Z,2.56
2023-01-21T21:03:52.600Z,2.55
2023-01-21T21:06:21.528Z,2.57
2023-01-21T21:08:49.174Z,2.52
2023-01-21T21:11:16.448Z,2.20
2023-01-21T21:13:43.201Z,2.28
2023-01-21T21:16:27.774Z,2.27
2023-01-21T21:18:56.172Z,2.26
2023-01-21T21:21:24.010Z,2.24
2023-01-21T21:23:53.567Z,2.16
2023-01-21T21:26:23.610Z,2.08
2023-01-21T21:28:54.638Z,2.12
2023-01-21T21:31:21.660Z,2.10
2023-01-21T21:33:48.166Z,2.01
2023-01-21T21:36:20.097Z,2.05
2023-01-21T21:38:48.968Z,2.01
2023-01-21T21:41:36.316Z,2.02
2023-01-21T21:44:04.772Z,2.06
2023-01-21T21:46:49.784Z,2.03
2023-01-21T21:49:17.043Z,2.07
2023-01-21T21:51:45.556Z,2.05
2023-01-21T21:54:13.681Z,2.05
2023-01-21T21:56:40.270Z,2.11
2023-01-21T21:59:06.980Z,2.04
2023-01-21T22:01:34.942Z,2.10
2023-01-21T22:04:03.031Z,2.02
2023-01-21T22:06:29.653Z,2.03
2023-01-21T22:08:57.378Z,1.95
2023-01-21T22:11:24.296Z,2.05
2023-01-21T22:13:51.527Z,2.17
2023-01-21T22:16:27.858Z,2.12
2023-01-21T22:18:55.362Z,2.16
2023-01-21T22:21:24.947Z,2.15
2023-01-21T22:23:53.042Z,2.18
2023-01-21T22:26:21.876Z,2.05
2023-01-21T22:28:48.679Z,2.09
2023-01-21T22:31:25.761Z,2.05
2023-01-21T22:33:52.984Z,2.12
2023-01-21T22:36:21.134Z,2.10
2023-01-21T22:38:48.044Z,2.13
2023-01-21T22:41:16.727Z,2.05
2023-01-21T22:43:48.642Z,2.09
2023-01-21T22:46:17.650Z,2.13
2023-01-21T22:48:47.260Z,2.12
2023-01-21T22:51:17.070Z,2.20
2023-01-21T22:53:43.998Z,2.09
2023-01-21T22:56:14.953Z,2.16
2023-01-21T22:58:41.681Z,2.11
2023-01-21T23:01:09.091Z,2.19
2023-01-21T23:03:37.277Z,2.22
2023-01-21T23:06:06.347Z,2.21
2023-01-21T23:08:33.224Z,2.25
2023-01-21T23:11:04.372Z,2.03
2023-01-21T23:13:32.025Z,2.07
2023-01-21T23:15:58.955Z,2.20
2023-01-21T23:18:27.886Z,2.23
2023-01-21T23:20:54.950Z,2.12
2023-01-21T23:23:21.357Z,2.25
2023-01-21T23:25:48.117Z,2.12
2023-01-21T23:28:14.763Z,2.12
2023-01-21T23:30:41.637Z,2.15
2023-01-21T23:33:08.261Z,2.15
2023-01-21T23:35:35.455Z,2.24
2023-01-21T23:38:02.690Z,2.22
2023-01-21T23:40:29.386Z,2.22
2023-01-21T23:42:55.920Z,2.17
2023-01-21T23:45:22.466Z,2.12
2023-01-21T23:47:49.113Z,2.26
2023-01-21T23:50:16.151Z,2.29
2023-01-21T23:52:43.009Z,2.18
2023-01-21T23:55:10.355Z,2.32
2023-01-21T23:57:36.968Z,2.15
